sensor_id;sensor_type;location;lat;lon;timestamp;P1;durP1;ratioP1;P2;durP2;ratioP2
9964;SDS011;5023;53.554;9.964;2023-03-23T00:05:05;9.05;;;7.07;;
9964;SDS011;5023;53.554;9.964;2023-03-23T00:10:08;9.68;;;8.77;;
9964;SDS011;5023;53.554;9.964;2023-03-23T00:15:10;9.43;;;8.40;;
9964;SDS011;5023;53.554;9.964;2023-03-23T00:20:14;9.23;;;8.32;;
9964;SDS011;5023;53.554;9.964;2023-03-23T00:25:17;10.75;;;9.65;;
9964;SDS011;5023;53.554;9.964;2023-03-23T00:30:19;11.35;;;10.25;;
9964;SDS011;5023;53.554;9.964;2023-03-23T00:35:23;13.77;;;10.60;;
9964;SDS011;5023;53.554;9.964;2023-03-23T00:40:27;11.18;;;10.07;;
9964;SDS011;5023;53.554;9.964;2023-03-23T00:45:32;11.55;;;10.45;;
9964;SDS011;5023;53.554;9.964;2023-03-23T00:50:38;11.75;;;10.73;;
9964;SDS011;5023;53.554;9.964;2023-03-23T00:55:40;12.25;;;11.05;;
9964;SDS011;5023;53.554;9.964;2023-03-23T01:00:45;12.23;;;10.90;;
9964;SDS011;5023;53.554;9.964;2023-03-23T01:05:48;11.30;;;10.25;;
9964;SDS011;5023;53.554;9.964;2023-03-23T01:10:51;13.48;;;12.15;;
9964;SDS011;5023;53.554;9.964;2023-03-23T01:16:04;10.90;;;9.80;;
9964;SDS011;5023;53.554;9.964;2023-03-23T01:21:09;10.65;;;9.68;;
9964;SDS011;5023;53.554;9.964;2023-03-23T01:26:14;11.00;;;10.00;;
9964;SDS011;5023;53.554;9.964;2023-03-23T01:31:17;12.73;;;10.85;;
9964;SDS011;5023;53.554;9.964;2023-03-23T01:46:44;12.57;;;11.18;;
9964;SDS011;5023;53.554;9.964;2023-03-23T01:51:47;12.00;;;10.80;;
9964;SDS011;5023;53.554;9.964;2023-03-23T01:56:52;12.90;;;11.70;;
9964;SDS011;5023;53.554;9.964;2023-03-23T02:01:58;11.93;;;10.77;;
9964;SDS011;5023;53.554;9.964;2023-03-23T02:07:01;11.30;;;10.30;;
9964;SDS011;5023;53.554;9.964;2023-03-23T02:12:04;11.77;;;10.68;;
9964;SDS011;5023;53.554;9.964;2023-03-23T02:17:12;11.43;;;10.23;;
9964;SDS011;5023;53.554;9.964;2023-03-23T02:27:58;11.15;;;10.05;;
9964;SDS011;5023;53.554;9.964;2023-03-23T02:33:22;11.10;;;10.05;;
9964;SDS011;5023;53.554;9.964;2023-03-23T02:38:47;10.70;;;9.60;;
9964;SDS011;5023;53.554;9.964;2023-03-23T02:43:56;10.73;;;9.80;;
9964;SDS011;5023;53.554;9.964;2023-03-23T02:49:00;10.45;;;9.50;;
9964;SDS011;5023;53.554;9.964;2023-03-23T02:54:05;10.65;;;9.65;;
9964;SDS011;5023;53.554;9.964;2023-03-23T02:59:08;10.65;;;9.65;;
9964;SDS011;5023;53.554;9.964;2023-03-23T03:04:12;9.93;;;9.05;;
9964;SDS011;5023;53.554;9.964;2023-03-23T03:09:19;10.63;;;9.70;;
9964;SDS011;5023;53.554;9.964;2023-03-23T03:14:33;10.98;;;9.95;;
9964;SDS011;5023;53.554;9.964;2023-03-23T03:19:44;11.80;;;10.77;;
9964;SDS011;5023;53.554;9.964;2023-03-23T03:24:49;11.40;;;10.30;;
9964;SDS011;5023;53.554;9.964;2023-03-23T03:29:56;10.57;;;9.63;;
9964;SDS011;5023;53.554;9.964;2023-03-23T03:35:02;11.27;;;10.25;;
9964;SDS011;5023;53.554;9.964;2023-03-23T03:40:06;11.63;;;10.63;;
9964;SDS011;5023;53.554;9.964;2023-03-23T03:45:12;11.90;;;10.70;;
9964;SDS011;5023;53.554;9.964;2023-03-23T03:50:17;12.77;;;10.55;;
9964;SDS011;5023;53.554;9.964;2023-03-23T03:55:19;11.13;;;9.98;;
9964;SDS011;5023;53.554;9.964;2023-03-23T04:00:22;11.48;;;10.35;;
9964;SDS011;5023;53.554;9.964;2023-03-23T04:05:28;10.85;;;9.88;;
9964;SDS011;5023;53.554;9.964;2023-03-23T04:10:31;11.50;;;10.30;;
9964;SDS011;5023;53.554;9.964;2023-03-23T04:15:33;12.25;;;11.02;;
9964;SDS011;5023;53.554;9.964;2023-03-23T04:20:37;11.73;;;10.40;;
9964;SDS011;5023;53.554;9.964;2023-03-23T04:25:40;11.23;;;10.18;;
9964;SDS011;5023;53.554;9.964;2023-03-23T04:30:43;11.45;;;10.35;;
9964;SDS011;5023;53.554;9.964;2023-03-23T04:35:50;11.68;;;10.52;;
9964;SDS011;5023;53.554;9.964;2023-03-23T04:40:53;11.30;;;10.15;;
9964;SDS011;5023;53.554;9.964;2023-03-23T04:45:56;11.20;;;10.20;;
9964;SDS011;5023;53.554;9.964;2023-03-23T04:51:02;12.85;;;11.55;;
9964;SDS011;5023;53.554;9.964;2023-03-23T04:56:06;11.02;;;10.00;;
9964;SDS011;5023;53.554;9.964;2023-03-23T05:01:08;11.68;;;10.50;;
9964;SDS011;5023;53.554;9.964;2023-03-23T05:06:15;11.93;;;10.82;;
9964;SDS011;5023;53.554;9.964;2023-03-23T05:11:17;12.13;;;11.07;;
9964;SDS011;5023;53.554;9.964;2023-03-23T05:16:19;11.88;;;10.80;;
9964;SDS011;5023;53.554;9.964;2023-03-23T05:21:23;10.82;;;9.73;;
9964;SDS011;5023;53.554;9.964;2023-03-23T05:26:26;10.45;;;9.52;;
9964;SDS011;5023;53.554;9.964;2023-03-23T05:31:29;11.35;;;10.25;;
9964;SDS011;5023;53.554;9.964;2023-03-23T05:36:36;10.40;;;9.00;;
9964;SDS011;5023;53.554;9.964;2023-03-23T05:41:38;9.60;;;8.60;;
9964;SDS011;5023;53.554;9.964;2023-03-23T05:46:40;9.75;;;8.85;;
9964;SDS011;5023;53.554;9.964;2023-03-23T05:51:45;9.65;;;8.65;;
9964;SDS011;5023;53.554;9.964;2023-03-23T05:56:48;8.48;;;7.63;;
9964;SDS011;5023;53.554;9.964;2023-03-23T06:01:50;9.27;;;7.85;;
9964;SDS011;5023;53.554;9.964;2023-03-23T06:06:55;10.52;;;7.22;;
9964;SDS011;5023;53.554;9.964;2023-03-23T06:11:57;7.30;;;6.70;;
9964;SDS011;5023;53.554;9.964;2023-03-23T06:16:59;8.10;;;7.30;;
9964;SDS011;5023;53.554;9.964;2023-03-23T06:22:03;10.40;;;7.10;;
9964;SDS011;5023;53.554;9.964;2023-03-23T06:27:05;7.75;;;6.95;;
9964;SDS011;5023;53.554;9.964;2023-03-23T06:32:09;7.22;;;6.53;;
9964;SDS011;5023;53.554;9.964;2023-03-23T06:37:14;6.70;;;6.00;;
9964;SDS011;5023;53.554;9.964;2023-03-23T06:42:18;8.57;;;6.50;;
9964;SDS011;5023;53.554;9.964;2023-03-23T06:47:20;6.57;;;5.88;;
9964;SDS011;5023;53.554;9.964;2023-03-23T06:52:25;6.28;;;5.55;;
9964;SDS011;5023;53.554;9.964;2023-03-23T06:57:27;6.13;;;5.53;;
9964;SDS011;5023;53.554;9.964;2023-03-23T07:02:32;5.88;;;5.35;;
9964;SDS011;5023;53.554;9.964;2023-03-23T07:07:37;5.22;;;4.72;;
9964;SDS011;5023;53.554;9.964;2023-03-23T07:12:39;6.70;;;4.95;;
9964;SDS011;5023;53.554;9.964;2023-03-23T07:17:42;6.32;;;5.05;;
9964;SDS011;5023;53.554;9.964;2023-03-23T07:22:45;5.18;;;4.68;;
9964;SDS011;5023;53.554;9.964;2023-03-23T07:27:47;4.97;;;4.40;;
9964;SDS011;5023;53.554;9.964;2023-03-23T07:32:49;6.88;;;4.60;;
9964;SDS011;5023;53.554;9.964;2023-03-23T07:37:53;4.72;;;4.30;;
9964;SDS011;5023;53.554;9.964;2023-03-23T07:42:56;5.40;;;4.20;;
9964;SDS011;5023;53.554;9.964;2023-03-23T07:47:58;5.45;;;4.22;;
9964;SDS011;5023;53.554;9.964;2023-03-23T07:53:02;6.03;;;4.93;;
9964;SDS011;5023;53.554;9.964;2023-03-23T07:58:05;6.53;;;5.53;;
9964;SDS011;5023;53.554;9.964;2023-03-23T08:03:07;5.25;;;4.78;;
9964;SDS011;5023;53.554;9.964;2023-03-23T08:08:12;5.80;;;5.30;;
9964;SDS011;5023;53.554;9.964;2023-03-23T08:13:14;6.70;;;5.55;;
9964;SDS011;5023;53.554;9.964;2023-03-23T08:18:17;5.82;;;5.22;;
9964;SDS011;5023;53.554;9.964;2023-03-23T08:23:20;6.38;;;5.78;;
9964;SDS011;5023;53.554;9.964;2023-03-23T08:28:23;6.28;;;5.50;;
9964;SDS011;5023;53.554;9.964;2023-03-23T08:33:25;6.40;;;5.72;;
9964;SDS011;5023;53.554;9.964;2023-03-23T08:38:29;3.90;;;3.60;;
9964;SDS011;5023;53.554;9.964;2023-03-23T08:43:32;2.38;;;2.17;;
9964;SDS011;5023;53.554;9.964;2023-03-23T08:48:36;3.28;;;2.30;;
9964;SDS011;5023;53.554;9.964;2023-03-23T08:53:40;3.25;;;2.65;;
9964;SDS011;5023;53.554;9.964;2023-03-23T08:58:42;3.17;;;2.88;;
9964;SDS011;5023;53.554;9.964;2023-03-23T09:03:44;9.45;;;8.27;;
9964;SDS011;5023;53.554;9.964;2023-03-23T09:08:48;7.82;;;5.20;;
9964;SDS011;5023;53.554;9.964;2023-03-23T09:13:50;12.63;;;4.80;;
9964;SDS011;5023;53.554;9.964;2023-03-23T09:18:52;3.95;;;3.03;;
9964;SDS011;5023;53.554;9.964;2023-03-23T09:23:56;6.57;;;2.75;;
9964;SDS011;5023;53.554;9.964;2023-03-23T09:28:59;9.88;;;3.33;;
9964;SDS011;5023;53.554;9.964;2023-03-23T09:34:01;6.40;;;2.63;;
9964;SDS011;5023;53.554;9.964;2023-03-23T09:39:05;10.88;;;2.85;;
9964;SDS011;5023;53.554;9.964;2023-03-23T09:44:14;8.70;;;2.97;;
9964;SDS011;5023;53.554;9.964;2023-03-23T09:49:25;8.80;;;2.85;;
9964;SDS011;5023;53.554;9.964;2023-03-23T09:54:33;5.55;;;2.55;;
9964;SDS011;5023;53.554;9.964;2023-03-23T09:59:39;5.90;;;2.55;;
9964;SDS011;5023;53.554;9.964;2023-03-23T10:04:46;5.78;;;2.40;;
9964;SDS011;5023;53.554;9.964;2023-03-23T10:09:52;6.00;;;2.75;;
9964;SDS011;5023;53.554;9.964;2023-03-23T10:20:29;4.93;;;2.28;;
9964;SDS011;5023;53.554;9.964;2023-03-23T10:25:46;7.93;;;3.03;;
9964;SDS011;5023;53.554;9.964;2023-03-23T10:30:54;4.53;;;2.58;;
9964;SDS011;5023;53.554;9.964;2023-03-23T10:36:00;12.52;;;3.70;;
9964;SDS011;5023;53.554;9.964;2023-03-23T10:41:10;8.48;;;3.10;;
9964;SDS011;5023;53.554;9.964;2023-03-23T10:46:18;5.68;;;3.10;;
9964;SDS011;5023;53.554;9.964;2023-03-23T10:51:28;13.85;;;8.25;;
9964;SDS011;5023;53.554;9.964;2023-03-23T10:56:36;9.90;;;3.17;;
9964;SDS011;5023;53.554;9.964;2023-03-23T11:01:41;9.02;;;3.10;;
9964;SDS011;5023;53.554;9.964;2023-03-23T11:06:46;7.35;;;3.22;;
9964;SDS011;5023;53.554;9.964;2023-03-23T11:11:52;10.40;;;5.35;;
9964;SDS011;5023;53.554;9.964;2023-03-23T11:16:56;8.48;;;3.70;;
9964;SDS011;5023;53.554;9.964;2023-03-23T11:22:06;7.93;;;3.55;;
9964;SDS011;5023;53.554;9.964;2023-03-23T11:27:17;11.27;;;3.55;;
9964;SDS011;5023;53.554;9.964;2023-03-23T11:32:22;8.65;;;3.15;;
9964;SDS011;5023;53.554;9.964;2023-03-23T11:37:28;8.27;;;3.55;;
9964;SDS011;5023;53.554;9.964;2023-03-23T11:42:44;10.05;;;3.72;;
9964;SDS011;5023;53.554;9.964;2023-03-23T11:47:57;10.52;;;4.43;;
9964;SDS011;5023;53.554;9.964;2023-03-23T11:53:08;9.10;;;3.97;;
9964;SDS011;5023;53.554;9.964;2023-03-23T11:58:17;31.73;;;15.27;;
9964;SDS011;5023;53.554;9.964;2023-03-23T12:03:33;7.47;;;4.03;;
9964;SDS011;5023;53.554;9.964;2023-03-23T12:08:50;8.40;;;3.35;;
9964;SDS011;5023;53.554;9.964;2023-03-23T12:14:04;18.27;;;11.02;;
9964;SDS011;5023;53.554;9.964;2023-03-23T12:19:16;9.95;;;4.43;;
9964;SDS011;5023;53.554;9.964;2023-03-23T12:24:29;7.55;;;4.70;;
9964;SDS011;5023;53.554;9.964;2023-03-23T12:29:48;9.27;;;4.75;;
9964;SDS011;5023;53.554;9.964;2023-03-23T12:34:59;7.03;;;4.50;;
9964;SDS011;5023;53.554;9.964;2023-03-23T12:40:09;9.40;;;5.18;;
9964;SDS011;5023;53.554;9.964;2023-03-23T12:51:06;9.00;;;4.35;;
9964;SDS011;5023;53.554;9.964;2023-03-23T12:56:16;9.48;;;4.10;;
9964;SDS011;5023;53.554;9.964;2023-03-23T13:01:22;8.50;;;4.88;;
9964;SDS011;5023;53.554;9.964;2023-03-23T13:06:27;10.52;;;4.88;;
9964;SDS011;5023;53.554;9.964;2023-03-23T13:11:33;9.68;;;4.68;;
9964;SDS011;5023;53.554;9.964;2023-03-23T13:16:42;8.45;;;4.35;;
9964;SDS011;5023;53.554;9.964;2023-03-23T13:21:50;7.93;;;4.20;;
9964;SDS011;5023;53.554;9.964;2023-03-23T13:26:58;7.70;;;4.05;;
9964;SDS011;5023;53.554;9.964;2023-03-23T13:32:09;7.32;;;5.38;;
9964;SDS011;5023;53.554;9.964;2023-03-23T13:37:19;6.25;;;3.55;;
9964;SDS011;5023;53.554;9.964;2023-03-23T13:42:24;6.13;;;2.90;;
9964;SDS011;5023;53.554;9.964;2023-03-23T13:47:36;6.15;;;3.72;;
9964;SDS011;5023;53.554;9.964;2023-03-23T13:52:46;4.93;;;2.75;;
9964;SDS011;5023;53.554;9.964;2023-03-23T13:57:52;4.22;;;2.92;;
9964;SDS011;5023;53.554;9.964;2023-03-23T14:03:01;4.05;;;2.70;;
9964;SDS011;5023;53.554;9.964;2023-03-23T14:08:11;7.45;;;6.18;;
9964;SDS011;5023;53.554;9.964;2023-03-23T14:13:16;3.47;;;1.70;;
9964;SDS011;5023;53.554;9.964;2023-03-23T14:18:23;3.33;;;1.80;;
9964;SDS011;5023;53.554;9.964;2023-03-23T14:23:30;4.35;;;1.95;;
9964;SDS011;5023;53.554;9.964;2023-03-23T14:28:36;2.08;;;1.83;;
9964;SDS011;5023;53.554;9.964;2023-03-23T14:33:41;4.47;;;2.05;;
9964;SDS011;5023;53.554;9.964;2023-03-23T14:38:43;5.80;;;2.60;;
9964;SDS011;5023;53.554;9.964;2023-03-23T14:43:45;4.22;;;2.05;;
9964;SDS011;5023;53.554;9.964;2023-03-23T14:48:50;3.22;;;1.80;;
9964;SDS011;5023;53.554;9.964;2023-03-23T14:53:52;3.63;;;2.10;;
9964;SDS011;5023;53.554;9.964;2023-03-23T14:59:00;3.72;;;2.17;;
9964;SDS011;5023;53.554;9.964;2023-03-23T15:04:08;3.05;;;2.08;;
9964;SDS011;5023;53.554;9.964;2023-03-23T15:09:13;5.63;;;1.98;;
9964;SDS011;5023;53.554;9.964;2023-03-23T15:14:19;4.38;;;2.13;;
9964;SDS011;5023;53.554;9.964;2023-03-23T15:19:27;5.25;;;2.50;;
9964;SDS011;5023;53.554;9.964;2023-03-23T15:24:34;8.50;;;5.93;;
9964;SDS011;5023;53.554;9.964;2023-03-23T15:29:46;5.25;;;3.60;;
9964;SDS011;5023;53.554;9.964;2023-03-23T15:35:11;8.13;;;4.47;;
9964;SDS011;5023;53.554;9.964;2023-03-23T15:40:17;4.78;;;3.30;;
9964;SDS011;5023;53.554;9.964;2023-03-23T15:45:25;5.85;;;3.75;;
9964;SDS011;5023;53.554;9.964;2023-03-23T15:50:34;6.22;;;3.05;;
9964;SDS011;5023;53.554;9.964;2023-03-23T15:55:37;6.10;;;2.90;;
9964;SDS011;5023;53.554;9.964;2023-03-23T16:00:40;2.63;;;2.15;;
9964;SDS011;5023;53.554;9.964;2023-03-23T16:05:52;4.13;;;2.33;;
9964;SDS011;5023;53.554;9.964;2023-03-23T16:10:56;4.40;;;2.50;;
9964;SDS011;5023;53.554;9.964;2023-03-23T16:15:59;6.10;;;2.35;;
9964;SDS011;5023;53.554;9.964;2023-03-23T16:21:03;4.40;;;2.45;;
9964;SDS011;5023;53.554;9.964;2023-03-23T16:26:06;7.63;;;5.10;;
9964;SDS011;5023;53.554;9.964;2023-03-23T16:31:09;5.55;;;3.13;;
9964;SDS011;5023;53.554;9.964;2023-03-23T16:36:13;7.35;;;3.20;;
9964;SDS011;5023;53.554;9.964;2023-03-23T16:41:18;4.82;;;3.50;;
9964;SDS011;5023;53.554;9.964;2023-03-23T16:46:19;6.28;;;4.22;;
9964;SDS011;5023;53.554;9.964;2023-03-23T16:51:26;6.32;;;2.92;;
9964;SDS011;5023;53.554;9.964;2023-03-23T16:56:40;6.45;;;3.80;;
9964;SDS011;5023;53.554;9.964;2023-03-23T17:01:45;5.88;;;4.05;;
9964;SDS011;5023;53.554;9.964;2023-03-23T17:06:49;6.45;;;4.75;;
9964;SDS011;5023;53.554;9.964;2023-03-23T17:12:01;7.07;;;4.03;;
9964;SDS011;5023;53.554;9.964;2023-03-23T17:17:03;7.05;;;3.33;;
9964;SDS011;5023;53.554;9.964;2023-03-23T17:22:07;5.32;;;3.90;;
9964;SDS011;5023;53.554;9.964;2023-03-23T17:27:09;9.63;;;4.95;;
9964;SDS011;5023;53.554;9.964;2023-03-23T17:32:12;9.45;;;4.93;;
9964;SDS011;5023;53.554;9.964;2023-03-23T17:37:16;9.35;;;5.32;;
9964;SDS011;5023;53.554;9.964;2023-03-23T17:42:18;5.57;;;4.72;;
9964;SDS011;5023;53.554;9.964;2023-03-23T17:47:20;6.13;;;4.45;;
9964;SDS011;5023;53.554;9.964;2023-03-23T17:52:25;5.10;;;3.90;;
9964;SDS011;5023;53.554;9.964;2023-03-23T17:57:27;6.32;;;4.15;;
9964;SDS011;5023;53.554;9.964;2023-03-23T18:02:31;7.47;;;4.90;;
9964;SDS011;5023;53.554;9.964;2023-03-23T18:07:35;7.68;;;4.70;;
9964;SDS011;5023;53.554;9.964;2023-03-23T18:12:37;6.55;;;3.72;;
9964;SDS011;5023;53.554;9.964;2023-03-23T18:17:39;8.05;;;4.13;;
9964;SDS011;5023;53.554;9.964;2023-03-23T18:22:45;8.20;;;4.82;;
9964;SDS011;5023;53.554;9.964;2023-03-23T18:27:48;8.73;;;4.90;;
9964;SDS011;5023;53.554;9.964;2023-03-23T18:32:50;7.70;;;4.45;;
9964;SDS011;5023;53.554;9.964;2023-03-23T18:37:53;7.97;;;3.60;;
9964;SDS011;5023;53.554;9.964;2023-03-23T18:42:56;4.22;;;3.08;;
9964;SDS011;5023;53.554;9.964;2023-03-23T18:47:59;8.18;;;3.90;;
9964;SDS011;5023;53.554;9.964;2023-03-23T18:53:04;5.68;;;3.42;;
9964;SDS011;5023;53.554;9.964;2023-03-23T18:58:06;5.40;;;2.88;;
9964;SDS011;5023;53.554;9.964;2023-03-23T19:03:08;6.95;;;3.72;;
9964;SDS011;5023;53.554;9.964;2023-03-23T19:08:11;6.13;;;4.20;;
9964;SDS011;5023;53.554;9.964;2023-03-23T19:13:13;6.68;;;3.40;;
9964;SDS011;5023;53.554;9.964;2023-03-23T19:18:16;5.93;;;3.72;;
9964;SDS011;5023;53.554;9.964;2023-03-23T19:23:22;7.28;;;3.85;;
9964;SDS011;5023;53.554;9.964;2023-03-23T19:28:24;6.57;;;4.13;;
9964;SDS011;5023;53.554;9.964;2023-03-23T19:33:26;4.55;;;2.80;;
9964;SDS011;5023;53.554;9.964;2023-03-23T19:38:30;6.10;;;4.07;;
9964;SDS011;5023;53.554;9.964;2023-03-23T19:43:32;5.97;;;3.50;;
9964;SDS011;5023;53.554;9.964;2023-03-23T19:48:34;6.40;;;3.90;;
9964;SDS011;5023;53.554;9.964;2023-03-23T19:53:38;6.47;;;3.60;;
9964;SDS011;5023;53.554;9.964;2023-03-23T19:58:40;5.18;;;3.70;;
9964;SDS011;5023;53.554;9.964;2023-03-23T20:03:42;9.35;;;3.92;;
9964;SDS011;5023;53.554;9.964;2023-03-23T20:08:47;7.45;;;4.72;;
9964;SDS011;5023;53.554;9.964;2023-03-23T20:13:53;4.47;;;3.10;;
9964;SDS011;5023;53.554;9.964;2023-03-23T20:18:55;14.05;;;8.88;;
9964;SDS011;5023;53.554;9.964;2023-03-23T20:23:59;6.35;;;5.18;;
9964;SDS011;5023;53.554;9.964;2023-03-23T20:29:01;5.85;;;4.25;;
9964;SDS011;5023;53.554;9.964;2023-03-23T20:34:04;5.60;;;4.70;;
9964;SDS011;5023;53.554;9.964;2023-03-23T20:39:13;5.40;;;4.47;;
9964;SDS011;5023;53.554;9.964;2023-03-23T20:44:20;8.75;;;6.68;;
9964;SDS011;5023;53.554;9.964;2023-03-23T20:49:24;5.28;;;4.88;;
9964;SDS011;5023;53.554;9.964;2023-03-23T20:54:29;6.30;;;5.65;;
9964;SDS011;5023;53.554;9.964;2023-03-23T20:59:31;8.57;;;6.55;;
9964;SDS011;5023;53.554;9.964;2023-03-23T21:04:35;8.93;;;6.90;;
9964;SDS011;5023;53.554;9.964;2023-03-23T21:09:43;7.70;;;6.63;;
9964;SDS011;5023;53.554;9.964;2023-03-23T21:14:45;9.35;;;7.70;;
9964;SDS011;5023;53.554;9.964;2023-03-23T21:19:48;14.32;;;10.85;;
9964;SDS011;5023;53.554;9.964;2023-03-23T21:24:51;9.63;;;7.85;;
9964;SDS011;5023;53.554;9.964;2023-03-23T21:29:55;9.30;;;7.63;;
9964;SDS011;5023;53.554;9.964;2023-03-23T21:34:58;10.75;;;9.18;;
9964;SDS011;5023;53.554;9.964;2023-03-23T21:40:06;10.43;;;9.18;;
9964;SDS011;5023;53.554;9.964;2023-03-23T21:45:13;10.98;;;9.27;;
9964;SDS011;5023;53.554;9.964;2023-03-23T21:50:17;10.70;;;9.60;;
9964;SDS011;5023;53.554;9.964;2023-03-23T21:55:22;11.50;;;10.27;;
9964;SDS011;5023;53.554;9.964;2023-03-23T22:00:28;11.02;;;9.93;;
9964;SDS011;5023;53.554;9.964;2023-03-23T22:05:31;10.98;;;9.75;;
9964;SDS011;5023;53.554;9.964;2023-03-23T22:10:38;11.63;;;10.48;;
9964;SDS011;5023;53.554;9.964;2023-03-23T22:15:40;10.63;;;8.98;;
9964;SDS011;5023;53.554;9.964;2023-03-23T22:20:43;10.73;;;9.15;;
9964;SDS011;5023;53.554;9.964;2023-03-23T22:25:47;10.85;;;9.38;;
9964;SDS011;5023;53.554;9.964;2023-03-23T22:30:49;13.85;;;9.35;;
9964;SDS011;5023;53.554;9.964;2023-03-23T22:35:52;10.98;;;8.82;;
9964;SDS011;5023;53.554;9.964;2023-03-23T22:40:56;11.20;;;9.18;;
9964;SDS011;5023;53.554;9.964;2023-03-23T22:46:00;11.32;;;8.90;;
9964;SDS011;5023;53.554;9.964;2023-03-23T22:51:02;11.07;;;9.63;;
9964;SDS011;5023;53.554;9.964;2023-03-23T22:56:07;10.40;;;9.27;;
9964;SDS011;5023;53.554;9.964;2023-03-23T23:01:11;11.23;;;8.77;;
9964;SDS011;5023;53.554;9.964;2023-03-23T23:06:15;10.13;;;8.40;;
9964;SDS011;5023;53.554;9.964;2023-03-23T23:11:20;13.15;;;9.70;;
9964;SDS011;5023;53.554;9.964;2023-03-23T23:16:25;11.73;;;8.30;;
9964;SDS011;5023;53.554;9.964;2023-03-23T23:21:28;10.55;;;7.88;;
9964;SDS011;5023;53.554;9.964;2023-03-23T23:26:31;14.52;;;10.55;;
9964;SDS011;5023;53.554;9.964;2023-03-23T23:31:34;9.63;;;8.32;;
9964;SDS011;5023;53.554;9.964;2023-03-23T23:36:36;8.20;;;7.07;;
9964;SDS011;5023;53.554;9.964;2023-03-23T23:41:41;8.07;;;6.60;;
9964;SDS011;5023;53.554;9.964;2023-03-23T23:46:43;9.98;;;6.30;;
9964;SDS011;5023;53.554;9.964;2023-03-23T23:51:45;7.47;;;5.45;;
9964;SDS011;5023;53.554;9.964;2023-03-23T23:56:50;6.90;;;5.13;;
